ROC weather

Greater Rochester International Airport
Rochester, New York, United States

Public forecast

Using degrees Fahrenheit for public forecast. Weather courtesy of forecast.io.

Current aviation weather report (METAR) for Greater Rochester International Airport

Retrieved 2020/07/12 21:54 UTC (38 minutes ago):

KROC 122154Z 28009KT 10SM FEW050 BKN140 BKN200 BKN260 27/16 A2972 RMK AO2 SLP062 T02670156

Aviation forecast (TAF) for Greater Rochester International Airport

Retrieved 2020/07/12 18:39 UTC (4 hours ago):

TAF KROC 121736Z 1218/1318 29012KT P6SM BKN050 FM130200 29008KT P6SM BKN040 FM131200 31010KT P6SM VCSH BKN035